Time;durP1;ratioP1;P1;durP2;ratioP2;P2;SDS_P1;SDS_P2;PMS_P1;PMS_P2;Temp;Humidity;BMP_temperature;BMP_pressure;BME280_temperature;BME280_humidity;BME280_pressure;Samples;Min_cycle;Max_cycle;Signal;HPM_P1;HPM_P2
2024/01/12 00:02:47;;;;;;;15.57;13.98;;;23.00;63.20;;;;;;6246666;27;84296;-64
2024/01/12 00:05:48;;;;;;;14.88;13.40;;;23.10;63.30;;;;;;6250184;27;84122;-63
2024/01/12 00:08:51;;;;;;;16.50;14.70;;;23.00;63.50;;;;;;6240388;27;84469;-63
2024/01/12 00:11:53;;;;;;;15.13;13.63;;;23.00;63.30;;;;;;6250766;27;84735;-64
2024/01/12 00:14:56;;;;;;;15.63;14.02;;;23.00;63.00;;;;;;6237835;28;83127;-64
2024/01/12 00:17:58;;;;;;;16.13;14.10;;;23.00;62.90;;;;;;6249922;28;82923;-64
2024/01/12 00:21:00;;;;;;;15.90;14.23;;;23.00;63.00;;;;;;6244291;27;83430;-64
2024/01/12 00:24:02;;;;;;;15.45;13.85;;;23.00;63.00;;;;;;6231365;28;84073;-63
2024/01/12 00:27:04;;;;;;;14.38;12.88;;;23.00;63.00;;;;;;6233605;28;84229;-64
2024/01/12 00:30:09;;;;;;;15.70;14.10;;;23.00;63.10;;;;;;6245639;28;84990;-64
2024/01/12 00:33:12;;;;;;;14.95;13.45;;;23.00;63.10;;;;;;6243799;28;84113;-64
2024/01/12 00:36:14;;;;;;;14.77;13.20;;;23.00;63.20;;;;;;6242758;27;84057;-64
2024/01/12 00:39:17;;;;;;;15.18;13.57;;;23.00;63.50;;;;;;6250966;28;84048;-64
2024/01/12 00:42:19;;;;;;;15.75;14.07;;;23.00;63.20;;;;;;6236159;27;84009;-63
2024/01/12 00:45:22;;;;;;;15.38;13.80;;;23.00;63.20;;;;;;6240109;27;84418;-63
2024/01/12 00:48:24;;;;;;;15.85;14.25;;;22.90;63.00;;;;;;6251183;27;84146;-64
2024/01/12 00:51:26;;;;;;;14.88;13.18;;;23.00;63.20;;;;;;6245215;28;84949;-64
2024/01/12 00:54:29;;;;;;;14.70;13.23;;;23.00;63.00;;;;;;6234798;27;84104;-64
2024/01/12 00:57:31;;;;;;;15.52;13.85;;;23.00;63.00;;;;;;6239476;28;83955;-64
2024/01/12 01:00:34;;;;;;;15.68;14.07;;;23.00;62.90;;;;;;6248982;27;84977;-64
2024/01/12 01:03:37;;;;;;;15.20;13.63;;;22.90;63.00;;;;;;6238401;27;84210;-64
2024/01/12 01:06:39;;;;;;;15.07;13.55;;;23.00;63.20;;;;;;6241842;28;84111;-64
2024/01/12 01:09:41;;;;;;;15.20;13.63;;;22.90;62.90;;;;;;6251735;27;85050;-63
2024/01/12 01:12:43;;;;;;;14.43;13.00;;;22.90;62.90;;;;;;6246858;27;84014;-64
2024/01/12 01:15:46;;;;;;;15.05;13.45;;;23.00;63.30;;;;;;6246764;28;83355;-63
2024/01/12 01:18:48;;;;;;;15.48;13.88;;;23.00;63.00;;;;;;6244652;28;83988;-63
2024/01/12 01:21:50;;;;;;;14.57;13.07;;;23.00;62.90;;;;;;6242720;28;83518;-64
2024/01/12 01:24:52;;;;;;;14.55;13.05;;;22.90;63.00;;;;;;6236146;27;83936;-63
2024/01/12 01:27:55;;;;;;;14.82;13.32;;;23.00;63.00;;;;;;6246849;27;83989;-63
2024/01/12 01:30:58;;;;;;;15.77;13.85;;;22.90;62.80;;;;;;6235957;28;85220;-63
2024/01/12 01:34:00;;;;;;;14.50;13.00;;;22.90;62.80;;;;;;6238628;28;84276;-64
2024/01/12 01:37:04;;;;;;;14.13;12.65;;;22.90;62.90;;;;;;6235900;27;84193;-63
2024/01/12 01:40:08;;;;;;;14.07;12.68;;;22.90;63.10;;;;;;6244290;28;83885;-64
2024/01/12 01:43:10;;;;;;;15.32;12.95;;;22.90;63.50;;;;;;6246778;28;84531;-63
2024/01/12 01:46:14;;;;;;;14.10;12.70;;;22.90;62.90;;;;;;6245985;27;83643;-63
2024/01/12 01:49:16;;;;;;;14.23;12.82;;;22.90;62.80;;;;;;6250010;27;83932;-64
2024/01/12 01:52:19;;;;;;;14.38;12.88;;;22.90;62.80;;;;;;6251904;27;83392;-64
2024/01/12 01:55:21;;;;;;;13.95;12.48;;;22.90;62.90;;;;;;6249463;27;83963;-64
2024/01/12 01:58:23;;;;;;;14.63;13.10;;;22.90;62.80;;;;;;6233924;28;83732;-64
2024/01/12 02:01:27;;;;;;;13.90;12.50;;;22.90;62.80;;;;;;6246570;28;84989;-63
2024/01/12 02:04:29;;;;;;;14.60;12.68;;;22.90;62.90;;;;;;6246431;27;83997;-63
2024/01/12 02:07:31;;;;;;;14.20;12.70;;;22.90;63.00;;;;;;6247582;28;84052;-64
2024/01/12 02:10:33;;;;;;;13.70;12.40;;;22.80;62.70;;;;;;6252986;28;84075;-63
2024/01/12 02:13:35;;;;;;;13.43;12.10;;;22.90;62.80;;;;;;6250668;27;84014;-64
2024/01/12 02:16:38;;;;;;;12.70;11.43;;;22.90;62.80;;;;;;6245953;27;84615;-63
2024/01/12 02:19:40;;;;;;;13.05;11.75;;;22.90;62.80;;;;;;6242002;28;83980;-63
2024/01/12 02:22:44;;;;;;;13.18;11.77;;;22.90;62.80;;;;;;6239011;27;83279;-64
2024/01/12 02:25:46;;;;;;;13.77;12.27;;;22.90;62.70;;;;;;6253458;27;86058;-63
2024/01/12 02:28:49;;;;;;;13.30;11.90;;;22.90;62.50;;;;;;6246401;27;84007;-64
2024/01/12 02:31:52;;;;;;;13.05;11.77;;;22.90;62.50;;;;;;6246997;27;85157;-63
2024/01/12 02:34:53;;;;;;;12.40;11.20;;;22.80;62.60;;;;;;6244249;27;84084;-64
2024/01/12 02:37:57;;;;;;;13.15;11.85;;;22.90;62.70;;;;;;6257283;27;84506;-63
2024/01/12 02:40:59;;;;;;;14.93;13.20;;;22.90;62.70;;;;;;6249492;27;85623;-65
2024/01/12 02:44:01;;;;;;;14.52;13.02;;;22.80;62.30;;;;;;6246046;27;84066;-64
2024/01/12 02:47:04;;;;;;;14.27;12.77;;;22.80;60.50;;;;;;6248352;27;84018;-64
2024/01/12 02:50:07;;;;;;;15.05;12.35;;;22.80;60.70;;;;;;6244725;27;84945;-64
2024/01/12 02:53:10;;;;;;;17.30;13.38;;;22.80;61.20;;;;;;6244894;27;84835;-64
2024/01/12 02:56:13;;;;;;;13.57;12.10;;;22.80;61.60;;;;;;6245500;27;83995;-64
2024/01/12 02:59:15;;;;;;;14.68;12.05;;;22.80;61.70;;;;;;6244533;27;84279;-64
2024/01/12 03:02:17;;;;;;;13.05;11.65;;;22.80;61.90;;;;;;6241931;27;85017;-65
2024/01/12 03:05:22;;;;;;;12.10;10.93;;;22.80;61.90;;;;;;6247237;27;84186;-65
2024/01/12 03:08:26;;;;;;;14.13;12.27;;;22.80;61.90;;;;;;6240391;27;83448;-64
2024/01/12 03:11:28;;;;;;;12.90;11.50;;;22.80;61.60;;;;;;6249621;27;84330;-64
2024/01/12 03:14:30;;;;;;;12.60;11.30;;;22.70;61.90;;;;;;6253899;28;84340;-64
2024/01/12 03:17:32;;;;;;;12.45;11.15;;;22.70;62.20;;;;;;6242102;27;83266;-64
2024/01/12 03:20:35;;;;;;;12.32;11.10;;;22.70;62.20;;;;;;6249105;27;84101;-65
2024/01/12 03:23:38;;;;;;;12.45;11.20;;;22.70;62.20;;;;;;6245552;28;83962;-64
2024/01/12 03:26:40;;;;;;;12.13;10.75;;;22.70;62.30;;;;;;6247221;28;83390;-65
2024/01/12 03:29:42;;;;;;;13.02;11.48;;;22.70;62.40;;;;;;6251274;27;83984;-64
2024/01/12 03:32:44;;;;;;;12.02;10.68;;;22.70;62.30;;;;;;6246564;27;84122;-64
2024/01/12 03:35:46;;;;;;;11.77;10.50;;;22.70;62.30;;;;;;6243398;27;83280;-65
2024/01/12 03:38:52;;;;;;;11.38;10.27;;;22.70;62.30;;;;;;6243375;28;83984;-64
2024/01/12 03:41:54;;;;;;;11.57;10.38;;;22.70;62.50;;;;;;6237466;28;84176;-64
2024/01/12 03:44:55;;;;;;;12.38;10.57;;;22.70;62.50;;;;;;6243587;27;83994;-64
2024/01/12 03:47:57;;;;;;;11.98;10.70;;;22.70;62.70;;;;;;6242583;27;84023;-64
2024/01/12 03:50:59;;;;;;;11.25;10.15;;;22.70;62.60;;;;;;6246372;27;82927;-64
2024/01/12 03:54:03;;;;;;;12.05;10.85;;;22.70;62.80;;;;;;6246124;27;83202;-64
2024/01/12 03:57:05;;;;;;;11.32;10.13;;;22.70;63.00;;;;;;6236150;28;84097;-64
2024/01/12 04:00:08;;;;;;;13.82;11.38;;;22.70;62.90;;;;;;6245492;27;83727;-63
2024/01/12 04:03:10;;;;;;;11.70;10.50;;;22.70;62.80;;;;;;6246133;28;83894;-64
2024/01/12 04:06:12;;;;;;;12.57;10.52;;;22.70;62.90;;;;;;6239619;28;82968;-64
2024/01/12 04:09:17;;;;;;;11.60;10.40;;;22.70;62.90;;;;;;6241005;27;84143;-64
2024/01/12 04:12:19;;;;;;;11.32;10.23;;;22.70;62.80;;;;;;6243790;28;83333;-64
2024/01/12 04:15:22;;;;;;;11.02;9.93;;;22.70;62.80;;;;;;6248449;27;83805;-63
2024/01/12 04:18:24;;;;;;;11.38;10.25;;;22.70;62.80;;;;;;6243117;27;82859;-63
2024/01/12 04:21:26;;;;;;;12.63;10.60;;;22.70;62.80;;;;;;6240324;28;84086;-64
2024/01/12 04:24:29;;;;;;;13.80;11.15;;;22.70;62.70;;;;;;6247270;27;83657;-63
2024/01/12 04:27:32;;;;;;;12.73;11.05;;;22.70;62.70;;;;;;6257759;27;84082;-63
2024/01/12 04:30:34;;;;;;;12.52;11.05;;;22.70;62.70;;;;;;6251933;27;84320;-63
2024/01/12 04:33:36;;;;;;;11.02;9.93;;;22.70;62.70;;;;;;6250740;27;84681;-64
2024/01/12 04:36:37;;;;;;;11.30;10.10;;;22.70;62.70;;;;;;6254480;27;84310;-63
2024/01/12 04:39:42;;;;;;;12.48;11.27;;;22.70;62.70;;;;;;6240954;28;84788;-63
2024/01/12 04:42:44;;;;;;;11.50;10.27;;;22.70;62.70;;;;;;6254201;27;82893;-63
2024/01/12 04:45:46;;;;;;;11.95;10.43;;;22.70;62.90;;;;;;6238237;27;85949;-64
2024/01/12 04:48:48;;;;;;;11.40;10.30;;;22.70;62.70;;;;;;6250183;28;84055;-63
2024/01/12 04:51:50;;;;;;;11.82;10.55;;;22.70;62.60;;;;;;6236345;27;84363;-63
2024/01/12 04:54:53;;;;;;;13.10;10.85;;;22.70;63.40;;;;;;6247363;28;83459;-63
2024/01/12 04:57:58;;;;;;;11.75;10.38;;;22.70;62.50;;;;;;6247605;27;84489;-63
2024/01/12 05:01:00;;;;;;;12.18;10.93;;;22.70;62.60;;;;;;6239913;27;84039;-63
2024/01/12 05:04:02;;;;;;;11.77;10.57;;;22.70;62.70;;;;;;6248405;28;83825;-63
2024/01/12 05:07:04;;;;;;;12.13;10.90;;;22.70;62.70;;;;;;6237470;28;82906;-63
2024/01/12 05:10:08;;;;;;;11.57;10.43;;;22.70;62.80;;;;;;6243186;27;83982;-63
2024/01/12 05:13:11;;;;;;;11.52;10.32;;;22.70;62.80;;;;;;6249191;28;84122;-63
2024/01/12 05:16:13;;;;;;;12.55;10.35;;;22.70;62.80;;;;;;6246465;27;83967;-63
2024/01/12 05:19:15;;;;;;;12.82;10.45;;;22.70;62.90;;;;;;6246527;27;84451;-63
2024/01/12 05:22:17;;;;;;;12.80;10.93;;;22.70;63.00;;;;;;6249627;27;84329;-63
2024/01/12 05:25:20;;;;;;;13.43;10.85;;;22.70;63.10;;;;;;6248699;27;83284;-63
2024/01/12 05:28:22;;;;;;;13.07;11.50;;;22.70;63.20;;;;;;6241568;27;82905;-63
2024/01/12 05:31:24;;;;;;;14.93;11.45;;;22.70;63.30;;;;;;6250970;27;84010;-63
2024/01/12 05:34:26;;;;;;;12.60;11.27;;;22.70;63.30;;;;;;6245654;27;84953;-63
2024/01/12 05:37:28;;;;;;;11.27;9.98;;;22.70;63.30;;;;;;6242268;28;84267;-63
2024/01/12 05:40:32;;;;;;;14.50;11.65;;;22.70;63.50;;;;;;6235704;27;84044;-64
2024/01/12 05:43:34;;;;;;;13.95;11.65;;;22.70;63.70;;;;;;6240292;27;84044;-64
2024/01/12 05:46:35;;;;;;;14.07;11.57;;;22.70;63.80;;;;;;6246741;27;84056;-64
2024/01/12 05:49:38;;;;;;;13.73;10.98;;;22.70;63.80;;;;;;6250539;27;83982;-64
2024/01/12 05:52:40;;;;;;;14.75;11.82;;;22.70;63.80;;;;;;6244984;27;84479;-64
2024/01/12 05:55:43;;;;;;;14.45;11.98;;;22.70;63.90;;;;;;6241441;27;83248;-63
2024/01/12 05:58:45;;;;;;;17.98;12.55;;;22.70;63.90;;;;;;6241162;27;84028;-62
2024/01/12 06:01:48;;;;;;;14.10;11.32;;;22.70;64.20;;;;;;6232297;28;84004;-62
2024/01/12 06:04:50;;;;;;;12.55;11.25;;;22.70;64.30;;;;;;6241196;28;85453;-62
2024/01/12 06:07:52;;;;;;;13.82;11.57;;;22.70;64.50;;;;;;6243846;28;84139;-62
2024/01/12 06:10:55;;;;;;;13.13;11.70;;;22.70;64.50;;;;;;6241969;27;83015;-62
2024/01/12 06:13:57;;;;;;;13.13;11.27;;;22.70;64.60;;;;;;6240426;28;84039;-62
2024/01/12 06:16:59;;;;;;;13.13;11.70;;;22.70;64.70;;;;;;6239596;27;84331;-62
2024/01/12 06:20:01;;;;;;;14.15;12.27;;;22.70;64.70;;;;;;6250231;27;84096;-62
2024/01/12 06:23:05;;;;;;;14.88;11.82;;;22.80;64.70;;;;;;6244591;27;82934;-62
2024/01/12 06:26:09;;;;;;;15.60;12.07;;;22.70;64.70;;;;;;6245442;27;82949;-62
2024/01/12 06:29:11;;;;;;;13.77;11.38;;;22.70;64.60;;;;;;6251218;27;84027;-61
2024/01/12 06:32:13;;;;;;;14.43;12.60;;;22.80;64.70;;;;;;6240093;27;84290;-62
2024/01/12 06:35:15;;;;;;;12.80;11.50;;;22.80;64.70;;;;;;6231313;28;84169;-62
2024/01/12 06:38:17;;;;;;;13.77;12.32;;;22.70;64.70;;;;;;6249015;28;83968;-61
2024/01/12 06:41:20;;;;;;;12.32;11.02;;;22.80;64.80;;;;;;6252190;27;84162;-61
2024/01/12 06:44:22;;;;;;;14.02;11.57;;;22.70;64.70;;;;;;6241580;27;82911;-61
2024/01/12 06:47:24;;;;;;;12.90;11.50;;;22.70;65.50;;;;;;6236422;27;84416;-61
2024/01/12 06:50:28;;;;;;;14.82;12.10;;;22.70;64.50;;;;;;6240070;27;84032;-61
2024/01/12 06:53:30;;;;;;;13.23;11.27;;;22.70;64.50;;;;;;6242745;27;84408;-62
2024/01/12 06:56:37;;;;;;;13.48;11.27;;;22.70;64.60;;;;;;6239721;27;84572;-62
2024/01/12 06:59:39;;;;;;;12.38;11.07;;;22.70;64.50;;;;;;6238318;27;84686;-61
2024/01/12 07:02:41;;;;;;;12.43;11.05;;;22.70;64.50;;;;;;6240252;28;82902;-61
2024/01/12 07:05:43;;;;;;;13.90;11.20;;;22.70;64.50;;;;;;6236401;27;84983;-61
2024/01/12 07:08:45;;;;;;;11.68;10.48;;;22.70;64.40;;;;;;6243954;27;84721;-61
2024/01/12 07:11:48;;;;;;;12.25;11.00;;;22.70;64.40;;;;;;6239574;28;83499;-61
2024/01/12 07:14:50;;;;;;;14.18;10.82;;;22.70;64.20;;;;;;6238454;27;82916;-62
2024/01/12 07:17:52;;;;;;;14.73;11.20;;;22.70;65.70;;;;;;6243199;27;84032;-62
2024/01/12 07:20:56;;;;;;;11.75;10.55;;;22.70;64.60;;;;;;6234166;28;83945;-62
2024/01/12 07:23:58;;;;;;;12.35;11.05;;;22.70;64.60;;;;;;6252484;27;84172;-61
2024/01/12 07:27:01;;;;;;;13.18;10.93;;;22.70;64.50;;;;;;6236979;28;83359;-61
2024/01/12 07:30:04;;;;;;;13.65;11.07;;;22.80;64.60;;;;;;6244267;28;82905;-62
2024/01/12 07:33:06;;;;;;;12.60;10.90;;;22.70;64.80;;;;;;6241739;27;84019;-62
2024/01/12 07:36:09;;;;;;;14.32;12.13;;;22.70;65.00;;;;;;6234659;28;85050;-61
2024/01/12 07:39:12;;;;;;;14.27;12.18;;;22.70;65.50;;;;;;6233151;27;84899;-61
2024/01/12 07:42:15;;;;;;;13.07;11.07;;;22.70;65.90;;;;;;6233617;28;84317;-61
2024/01/12 07:45:17;;;;;;;14.48;11.75;;;22.70;65.70;;;;;;6236922;27;84419;-61
2024/01/12 07:48:19;;;;;;;14.10;12.00;;;22.70;65.30;;;;;;6239785;27;84347;-61
2024/01/12 07:51:21;;;;;;;14.55;11.25;;;22.70;65.20;;;;;;6236530;28;82992;-61
2024/01/12 07:54:24;;;;;;;14.07;11.63;;;22.80;66.40;;;;;;6242097;28;83476;-61
2024/01/12 07:57:27;;;;;;;18.75;12.68;;;22.80;65.60;;;;;;6235201;27;83722;-60
2024/01/12 08:00:29;;;;;;;15.02;11.15;;;22.70;66.80;;;;;;6242427;27;84108;-61
2024/01/12 08:03:31;;;;;;;17.05;12.20;;;22.80;68.60;;;;;;6243480;27;84304;-61
2024/01/12 08:06:33;;;;;;;13.88;11.98;;;22.80;67.50;;;;;;6242806;27;85388;-61
2024/01/12 08:09:35;;;;;;;13.15;10.85;;;22.80;67.10;;;;;;6234494;27;83983;-61
2024/01/12 08:12:38;;;;;;;14.13;11.27;;;22.80;66.80;;;;;;6237513;27;84284;-60
2024/01/12 08:15:40;;;;;;;14.73;11.43;;;22.80;66.60;;;;;;6236024;27;83080;-60
2024/01/12 08:18:42;;;;;;;15.10;11.23;;;22.80;66.40;;;;;;6240135;28;83957;-60
2024/01/12 08:21:44;;;;;;;13.57;11.00;;;22.90;66.40;;;;;;6253131;27;84635;-60
2024/01/12 08:24:47;;;;;;;12.95;11.10;;;22.80;66.30;;;;;;6242628;28;84369;-61
2024/01/12 08:27:51;;;;;;;16.23;11.45;;;22.90;66.30;;;;;;6245480;28;84079;-61
2024/01/12 08:30:53;;;;;;;12.15;10.90;;;22.90;66.20;;;;;;6251384;28;82913;-60
2024/01/12 08:33:55;;;;;;;12.93;11.00;;;22.90;66.20;;;;;;6242902;27;84444;-61
2024/01/12 08:36:58;;;;;;;13.75;11.35;;;22.90;66.40;;;;;;6238055;27;85007;-61
2024/01/12 08:40:00;;;;;;;13.48;10.88;;;22.90;66.20;;;;;;6247416;27;84256;-62
2024/01/12 08:43:04;;;;;;;13.35;10.48;;;22.90;66.10;;;;;;6233303;28;84040;-61
2024/01/12 08:46:08;;;;;;;15.38;10.93;;;23.00;66.20;;;;;;6232280;27;83671;-61
2024/01/12 08:49:11;;;;;;;14.77;10.82;;;22.90;66.10;;;;;;6255456;27;83772;-60
2024/01/12 08:52:13;;;;;;;13.00;10.32;;;23.00;66.20;;;;;;6255809;27;84621;-60
2024/01/12 08:55:15;;;;;;;14.18;10.70;;;22.90;65.90;;;;;;6233162;28;84348;-61
2024/01/12 08:58:18;;;;;;;11.60;9.95;;;23.00;65.90;;;;;;6235217;28;83723;-61
2024/01/12 09:01:20;;;;;;;12.60;10.48;;;23.00;65.70;;;;;;6235210;28;84086;-61
2024/01/12 09:04:23;;;;;;;12.50;10.05;;;23.00;65.50;;;;;;6249479;28;82923;-62
2024/01/12 09:07:25;;;;;;;13.35;10.57;;;23.00;65.40;;;;;;6239890;27;85047;-61
2024/01/12 09:10:27;;;;;;;13.52;10.82;;;23.00;65.20;;;;;;6251071;27;84051;-61
2024/01/12 09:13:30;;;;;;;14.60;10.70;;;23.00;65.30;;;;;;6245973;27;84163;-61
2024/01/12 09:16:32;;;;;;;13.18;10.93;;;23.00;65.30;;;;;;6241608;27;84297;-62
2024/01/12 09:19:35;;;;;;;13.48;10.90;;;23.00;65.20;;;;;;6236644;28;84311;-62
2024/01/12 09:22:37;;;;;;;13.45;10.10;;;23.10;65.20;;;;;;6248856;27;84110;-61
2024/01/12 09:25:39;;;;;;;12.43;10.27;;;23.10;65.20;;;;;;6245148;27;84087;-61
2024/01/12 09:28:42;;;;;;;11.90;10.40;;;23.10;65.20;;;;;;6238722;27;83406;-62
2024/01/12 09:31:44;;;;;;;10.98;9.77;;;23.10;65.20;;;;;;6232555;28;83694;-61
2024/01/12 09:34:46;;;;;;;11.57;10.27;;;23.10;65.20;;;;;;6239476;28;83972;-61
2024/01/12 09:37:49;;;;;;;11.27;9.52;;;23.10;65.10;;;;;;6232598;28;85073;-61
2024/01/12 09:40:51;;;;;;;12.00;10.13;;;23.10;65.20;;;;;;6248005;28;81958;-62
2024/01/12 09:43:59;;;;;;;12.40;10.13;;;23.10;65.20;;;;;;6251341;27;84027;-62
2024/01/12 09:47:01;;;;;;;11.57;9.95;;;23.10;65.10;;;;;;6248805;27;84053;-61
2024/01/12 09:50:05;;;;;;;12.05;10.43;;;23.10;65.00;;;;;;6242251;27;84005;-63
2024/01/12 09:53:08;;;;;;;12.90;10.18;;;23.10;66.90;;;;;;6243927;27;84019;-63
2024/01/12 09:56:10;;;;;;;12.13;10.02;;;23.10;65.70;;;;;;6245450;28;84405;-63
2024/01/12 09:59:16;;;;;;;11.32;9.80;;;23.10;65.50;;;;;;6237410;27;82737;-63
2024/01/12 10:02:19;;;;;;;12.27;9.75;;;23.10;65.30;;;;;;6245433;27;83945;-62
2024/01/12 10:05:21;;;;;;;11.80;9.80;;;23.10;65.30;;;;;;6239445;27;84286;-62
2024/01/12 10:08:23;;;;;;;12.88;10.15;;;23.10;65.20;;;;;;6243380;27;84886;-61
2024/01/12 10:11:25;;;;;;;11.90;10.30;;;23.10;65.60;;;;;;6236535;28;83945;-62
2024/01/12 10:14:28;;;;;;;11.35;9.68;;;23.10;65.20;;;;;;6249567;27;84206;-62
2024/01/12 10:17:31;;;;;;;13.07;10.50;;;23.10;65.20;;;;;;6242436;27;83717;-61
2024/01/12 10:20:36;;;;;;;15.20;10.98;;;23.10;65.20;;;;;;6244074;27;84169;-61
2024/01/12 10:23:38;;;;;;;29.45;20.13;;;23.10;65.30;;;;;;6247061;27;84770;-62
2024/01/12 10:26:40;;;;;;;31.55;27.98;;;23.10;65.80;;;;;;6235453;27;84065;-63
2024/01/12 10:29:46;;;;;;;28.10;24.42;;;23.10;65.80;;;;;;6255728;27;83317;-61
2024/01/12 10:32:51;;;;;;;26.98;23.77;;;23.10;65.60;;;;;;6234750;28;84108;-61
2024/01/12 10:36:00;;;;;;;28.63;23.98;;;23.10;65.60;;;;;;6248202;27;83981;-62
2024/01/12 10:39:03;;;;;;;28.85;22.48;;;23.10;64.80;;;;;;6241141;27;84934;-62
2024/01/12 10:42:09;;;;;;;24.05;21.45;;;23.10;61.50;;;;;;6249701;28;84139;-62
2024/01/12 10:45:13;;;;;;;21.75;19.42;;;23.00;61.50;;;;;;6236315;28;84173;-62
2024/01/12 10:48:21;;;;;;;28.30;19.70;;;23.00;62.00;;;;;;6230819;28;84349;-60
2024/01/12 10:51:31;;;;;;;22.65;19.38;;;23.00;62.20;;;;;;6241748;28;84132;-60
2024/01/12 10:54:37;;;;;;;21.60;17.90;;;23.00;62.60;;;;;;6249551;27;84326;-61
2024/01/12 10:57:41;;;;;;;19.08;17.02;;;23.00;62.80;;;;;;6247578;27;84278;-60
2024/01/12 11:00:45;;;;;;;19.13;17.13;;;23.00;63.00;;;;;;6242953;28;82759;-60
2024/01/12 11:03:48;;;;;;;18.42;16.00;;;23.00;63.10;;;;;;6229915;28;83983;-60
2024/01/12 11:06:55;;;;;;;21.50;16.85;;;23.00;63.30;;;;;;6242193;27;84082;-59
2024/01/12 11:09:58;;;;;;;18.55;15.82;;;23.00;63.40;;;;;;6244273;27;84984;-60
2024/01/12 11:13:00;;;;;;;16.75;14.95;;;23.00;63.60;;;;;;6240996;28;83884;-60
2024/01/12 11:16:04;;;;;;;16.50;14.15;;;23.00;63.70;;;;;;6239194;28;84361;-59
2024/01/12 11:19:14;;;;;;;17.85;14.52;;;23.00;63.70;;;;;;6238737;27;83853;-61
2024/01/12 11:22:16;;;;;;;16.73;14.32;;;23.10;63.80;;;;;;6242647;27;85063;-62
2024/01/12 11:25:20;;;;;;;15.95;14.25;;;23.00;63.80;;;;;;6247622;27;84050;-61
2024/01/12 11:28:22;;;;;;;17.40;14.43;;;23.00;64.00;;;;;;6242796;27;84148;-61
2024/01/12 11:31:26;;;;;;;20.73;14.95;;;23.00;64.00;;;;;;6237888;28;83696;-60
2024/01/12 11:34:33;;;;;;;14.82;13.25;;;23.00;64.20;;;;;;6245804;28;84256;-62
2024/01/12 11:37:35;;;;;;;14.00;12.60;;;23.00;64.30;;;;;;6235766;28;83599;-61
2024/01/12 11:40:37;;;;;;;14.80;13.27;;;23.00;64.30;;;;;;6241221;27;84851;-62
2024/01/12 11:43:39;;;;;;;15.02;12.98;;;23.00;64.40;;;;;;6248294;28;83880;-62
2024/01/12 11:46:44;;;;;;;15.40;13.35;;;23.10;64.40;;;;;;6236046;27;84858;-61
2024/01/12 11:49:47;;;;;;;16.10;12.98;;;23.00;64.40;;;;;;6238340;27;84009;-61
2024/01/12 11:52:56;;;;;;;13.93;12.43;;;23.00;64.50;;;;;;6241081;28;83952;-61
2024/01/12 11:55:58;;;;;;;13.82;12.30;;;23.00;64.50;;;;;;6245611;27;84069;-61
2024/01/12 11:59:00;;;;;;;14.52;12.30;;;23.00;64.70;;;;;;6235093;27;84278;-62
2024/01/12 12:02:04;;;;;;;14.93;12.65;;;23.00;64.70;;;;;;6236119;27;83829;-60
2024/01/12 12:05:07;;;;;;;16.35;12.70;;;23.10;65.80;;;;;;6240887;27;83525;-60
2024/01/12 12:08:09;;;;;;;13.30;11.90;;;23.10;64.90;;;;;;6236272;27;84425;-61
2024/01/12 12:11:12;;;;;;;13.23;11.88;;;23.00;64.90;;;;;;6241337;27;84957;-61
2024/01/12 12:14:14;;;;;;;12.55;11.25;;;23.10;65.00;;;;;;6238289;27;84097;-61
2024/01/12 12:17:18;;;;;;;12.73;11.23;;;23.10;65.10;;;;;;6245952;27;83353;-61
2024/01/12 12:20:20;;;;;;;11.90;10.70;;;23.10;65.00;;;;;;6237529;27;83271;-61
2024/01/12 12:23:22;;;;;;;12.75;11.05;;;23.10;65.00;;;;;;6240690;27;84003;-61
2024/01/12 12:26:25;;;;;;;13.05;11.70;;;23.10;65.10;;;;;;6251926;27;83974;-60
2024/01/12 12:29:29;;;;;;;15.57;11.90;;;23.10;65.20;;;;;;6242182;28;83026;-60
2024/01/12 12:32:33;;;;;;;13.45;10.98;;;23.10;65.10;;;;;;6245180;28;84005;-61
2024/01/12 12:35:35;;;;;;;17.35;12.30;;;23.00;65.70;;;;;;6250292;27;84212;-61
2024/01/12 12:38:37;;;;;;;13.93;11.07;;;23.10;65.90;;;;;;6245836;27;85026;-61
2024/01/12 12:41:40;;;;;;;12.80;11.48;;;23.10;66.00;;;;;;6259183;27;84832;-61
2024/01/12 12:44:42;;;;;;;12.38;11.07;;;23.10;65.90;;;;;;6253229;27;83927;-62
2024/01/12 12:47:46;;;;;;;12.20;10.88;;;23.00;65.90;;;;;;6239192;27;85626;-62
2024/01/12 12:50:48;;;;;;;13.32;11.65;;;23.00;65.90;;;;;;6242720;27;85764;-62
2024/01/12 12:53:50;;;;;;;12.77;10.73;;;23.00;66.00;;;;;;6252566;27;84122;-62
2024/01/12 12:56:52;;;;;;;11.93;10.15;;;23.00;66.00;;;;;;6250079;27;84414;-62
2024/01/12 12:59:54;;;;;;;12.27;10.98;;;23.00;66.10;;;;;;6245640;27;83978;-62
2024/01/12 13:02:57;;;;;;;13.65;10.60;;;23.00;66.20;;;;;;6244484;27;83699;-62
2024/01/12 13:06:00;;;;;;;12.77;11.20;;;23.00;66.10;;;;;;6252303;27;83646;-62
2024/01/12 13:09:05;;;;;;;11.95;10.70;;;23.00;66.30;;;;;;6245217;27;84074;-62
2024/01/12 13:12:09;;;;;;;11.93;10.73;;;23.00;66.20;;;;;;6256528;27;85078;-62
2024/01/12 13:15:11;;;;;;;12.68;11.38;;;23.00;66.20;;;;;;6245867;27;82987;-62
2024/01/12 13:18:14;;;;;;;12.38;11.07;;;23.00;66.10;;;;;;6236881;28;83749;-62
2024/01/12 13:21:17;;;;;;;15.45;11.20;;;23.00;66.10;;;;;;6238560;28;84447;-62
2024/01/12 13:24:19;;;;;;;12.15;10.85;;;23.00;66.10;;;;;;6242019;27;83224;-62
2024/01/12 13:27:21;;;;;;;12.18;10.98;;;23.00;66.00;;;;;;6259973;27;83977;-62
2024/01/12 13:30:23;;;;;;;11.90;10.70;;;23.00;66.00;;;;;;6243790;27;83960;-62
2024/01/12 13:33:26;;;;;;;12.20;10.98;;;23.00;65.90;;;;;;6240924;28;82721;-62
2024/01/12 13:36:28;;;;;;;12.40;11.25;;;23.00;65.80;;;;;;6239967;28;82909;-62
2024/01/12 13:39:32;;;;;;;12.52;11.23;;;23.00;65.70;;;;;;6239314;28;83975;-62
2024/01/12 13:42:34;;;;;;;12.55;11.35;;;23.00;65.70;;;;;;6238160;28;85083;-62
2024/01/12 13:45:36;;;;;;;15.55;11.73;;;23.00;65.70;;;;;;6244921;28;84092;-62
2024/01/12 13:48:40;;;;;;;13.10;11.38;;;23.00;65.70;;;;;;6238690;27;84071;-62
2024/01/12 13:51:43;;;;;;;12.80;10.80;;;23.00;65.50;;;;;;6240626;28;83948;-62
2024/01/12 13:54:44;;;;;;;12.48;11.18;;;23.00;65.50;;;;;;6243430;28;84006;-62
2024/01/12 13:57:47;;;;;;;12.43;11.20;;;23.00;65.50;;;;;;6240180;28;85209;-62
2024/01/12 14:00:50;;;;;;;12.40;11.13;;;23.00;65.50;;;;;;6248647;27;84470;-62
2024/01/12 14:03:54;;;;;;;12.73;11.38;;;23.00;65.50;;;;;;6244351;27;83407;-62
2024/01/12 14:06:56;;;;;;;12.90;11.60;;;23.00;65.50;;;;;;6241201;28;84115;-62
2024/01/12 14:09:58;;;;;;;12.10;10.90;;;23.00;65.40;;;;;;6255045;27;83999;-62
2024/01/12 14:13:01;;;;;;;13.15;11.82;;;23.00;65.40;;;;;;6254916;27;83866;-62
2024/01/12 14:16:03;;;;;;;13.15;11.82;;;23.00;65.30;;;;;;6236734;28;83990;-62
2024/01/12 14:19:07;;;;;;;12.40;11.20;;;23.00;65.30;;;;;;6237500;27;84038;-62
2024/01/12 14:22:09;;;;;;;13.15;11.95;;;23.00;65.30;;;;;;6244947;27;83961;-63
2024/01/12 14:25:11;;;;;;;14.30;12.80;;;23.00;65.20;;;;;;6252620;27;83932;-62
2024/01/12 14:28:13;;;;;;;12.38;11.18;;;22.90;65.20;;;;;;6252106;27;84365;-62
2024/01/12 14:31:16;;;;;;;12.57;11.27;;;23.00;65.20;;;;;;6241439;28;84085;-62
2024/01/12 14:34:19;;;;;;;12.52;11.32;;;22.90;65.20;;;;;;6240208;27;83621;-62
2024/01/12 14:37:22;;;;;;;12.80;11.50;;;23.00;65.20;;;;;;6240948;28;83990;-62
2024/01/12 14:40:24;;;;;;;12.90;11.60;;;23.00;65.10;;;;;;6238313;27;84196;-62
2024/01/12 14:43:26;;;;;;;12.95;11.65;;;23.00;65.20;;;;;;6242147;28;83915;-62
2024/01/12 14:46:28;;;;;;;13.25;11.95;;;22.90;65.10;;;;;;6239350;28;83773;-62
2024/01/12 14:49:32;;;;;;;13.38;11.98;;;22.90;65.00;;;;;;6246470;28;83550;-62
2024/01/12 14:52:34;;;;;;;13.25;11.85;;;22.90;65.00;;;;;;6233204;28;83998;-62
2024/01/12 14:55:35;;;;;;;13.65;12.25;;;22.90;65.00;;;;;;6246382;28;84126;-62
2024/01/12 14:58:38;;;;;;;12.68;11.38;;;22.90;65.00;;;;;;6233493;28;83991;-62
2024/01/12 15:01:39;;;;;;;13.00;11.70;;;22.90;65.00;;;;;;6234586;27;83944;-62
2024/01/12 15:04:43;;;;;;;12.90;11.60;;;22.90;65.00;;;;;;6245915;28;82807;-62
2024/01/12 15:07:45;;;;;;;13.27;11.98;;;22.90;64.90;;;;;;6244127;28;84115;-63
2024/01/12 15:10:48;;;;;;;13.25;11.95;;;22.90;64.90;;;;;;6242623;27;83741;-62
2024/01/12 15:13:50;;;;;;;12.65;11.45;;;22.90;64.90;;;;;;6245341;28;83664;-62
2024/01/12 15:16:52;;;;;;;12.35;11.18;;;22.90;64.90;;;;;;6240823;27;83985;-62
2024/01/12 15:19:55;;;;;;;12.85;11.57;;;22.80;64.80;;;;;;6243426;28;84363;-63
2024/01/12 15:22:58;;;;;;;12.05;10.90;;;22.80;64.70;;;;;;6254815;27;84075;-63
2024/01/12 15:26:03;;;;;;;12.65;11.40;;;22.90;64.80;;;;;;6246167;27;82932;-62
2024/01/12 15:29:05;;;;;;;12.90;11.63;;;22.80;64.70;;;;;;6233293;28;83216;-62